createdAt,value
2022-11-20T00:01:53.886Z,39.17
2022-11-20T00:04:23.930Z,38.53
2022-11-20T00:06:54.621Z,38.75
2022-11-20T00:09:24.455Z,38.13
2022-11-20T00:11:54.253Z,38.50
2022-11-20T00:14:24.192Z,38.53
2022-11-20T00:16:55.215Z,38.50
2022-11-20T00:19:24.784Z,39.08
2022-11-20T00:21:55.997Z,40.88
2022-11-20T00:24:25.797Z,38.03
2022-11-20T00:26:54.099Z,37.72
2022-11-20T00:29:23.101Z,37.95
2022-11-20T00:31:51.901Z,42.65
2022-11-20T00:34:20.163Z,40.92
2022-11-20T00:36:51.065Z,39.72
2022-11-20T00:39:19.690Z,37.63
2022-11-20T00:41:49.707Z,37.78
2022-11-20T00:44:19.169Z,38.50
2022-11-20T00:46:49.807Z,38.30
2022-11-20T00:49:18.385Z,45.58
2022-11-20T00:51:49.314Z,36.83
2022-11-20T00:54:20.218Z,39.50
2022-11-20T00:56:49.753Z,38.25
2022-11-20T00:59:18.089Z,39.00
2022-11-20T01:01:47.746Z,38.35
2022-11-20T01:04:17.163Z,37.67
2022-11-20T01:06:46.740Z,48.33
2022-11-20T01:09:16.517Z,39.35
2022-11-20T01:11:48.797Z,36.50
2022-11-20T01:14:21.628Z,39.63
2022-11-20T01:16:53.547Z,38.22
2022-11-20T01:19:25.539Z,38.30
2022-11-20T01:21:56.654Z,38.25
2022-11-20T01:24:25.619Z,36.85
2022-11-20T01:26:57.634Z,38.85
2022-11-20T01:29:27.491Z,38.75
2022-11-20T01:31:58.186Z,39.72
2022-11-20T01:34:27.815Z,38.50
2022-11-20T01:36:58.520Z,38.83
2022-11-20T01:39:29.157Z,38.13
2022-11-20T01:42:16.328Z,39.40
2022-11-20T01:44:53.818Z,37.88
2022-11-20T01:47:33.637Z,38.92
2022-11-20T01:50:08.150Z,38.67
2022-11-20T01:52:44.251Z,38.72
2022-11-20T01:55:19.659Z,41.00
2022-11-20T01:57:52.192Z,38.42
2022-11-20T02:00:22.628Z,37.95
2022-11-20T02:02:57.445Z,39.00
2022-11-20T02:05:34.747Z,38.85
2022-11-20T02:08:05.324Z,38.25
2022-11-20T02:10:35.315Z,38.63
2022-11-20T02:13:24.314Z,39.67
2022-11-20T02:15:54.416Z,38.08
2022-11-20T02:18:25.219Z,38.72
2022-11-20T02:21:08.369Z,38.60
2022-11-20T02:23:45.483Z,37.17
2022-11-20T02:26:18.117Z,38.13
2022-11-20T02:28:48.876Z,40.60
2022-11-20T02:31:17.510Z,38.58
2022-11-20T02:33:46.988Z,37.58
2022-11-20T02:36:18.194Z,41.17
2022-11-20T02:38:49.085Z,39.28
2022-11-20T02:41:20.015Z,38.85
2022-11-20T02:43:49.491Z,37.63
2022-11-20T02:46:17.734Z,40.03
2022-11-20T02:48:46.034Z,37.22
2022-11-20T02:51:14.299Z,37.92
2022-11-20T02:53:45.186Z,39.70
2022-11-20T02:56:15.196Z,38.45
2022-11-20T02:58:47.205Z,38.38
2022-11-20T03:03:46.169Z,38.45
2022-11-20T03:06:15.883Z,38.83
2022-11-20T03:08:45.699Z,37.97
2022-11-20T03:11:14.011Z,38.40
2022-11-20T03:13:46.016Z,38.47
2022-11-20T03:16:18.900Z,39.05
2022-11-20T03:18:50.335Z,37.92
2022-11-20T03:21:19.757Z,39.92
2022-11-20T03:23:51.020Z,37.67
2022-11-20T03:26:22.176Z,40.00
2022-11-20T03:28:57.048Z,37.67
2022-11-20T03:31:29.009Z,39.05
2022-11-20T03:33:59.862Z,39.95
2022-11-20T03:36:29.870Z,38.60
2022-11-20T03:39:01.364Z,39.47
2022-11-20T03:41:32.597Z,54.40
2022-11-20T03:44:06.402Z,39.78
2022-11-20T03:46:35.172Z,39.03
2022-11-20T03:49:05.390Z,38.92
2022-11-20T03:51:35.673Z,38.55
2022-11-20T03:54:08.909Z,38.85
2022-11-20T03:59:13.160Z,38.97
2022-11-20T04:01:45.521Z,37.50
2022-11-20T04:04:18.688Z,37.40
2022-11-20T04:06:48.568Z,37.80
2022-11-20T04:09:18.357Z,38.55
2022-11-20T04:11:46.679Z,37.70
2022-11-20T04:14:17.980Z,38.25
2022-11-20T04:16:47.486Z,38.30
2022-11-20T04:19:19.443Z,38.53
2022-11-20T04:21:47.992Z,37.92
2022-11-20T04:24:17.515Z,38.45
2022-11-20T04:26:45.779Z,38.25
2022-11-20T04:29:15.575Z,37.53
2022-11-20T04:31:45.035Z,38.75
2022-11-20T04:34:16.254Z,38.35
2022-11-20T04:36:45.777Z,37.72
2022-11-20T04:39:15.749Z,37.53
2022-11-20T04:41:44.502Z,37.78
2022-11-20T04:44:14.454Z,37.75
2022-11-20T04:46:45.007Z,37.80
2022-11-20T04:49:13.640Z,37.90
2022-11-20T04:51:43.468Z,37.83
2022-11-20T04:54:15.477Z,39.70
2022-11-20T04:59:14.215Z,37.67
2022-11-20T05:01:46.766Z,42.97
2022-11-20T05:04:17.503Z,38.28
2022-11-20T05:06:47.272Z,37.72
2022-11-20T05:09:15.671Z,36.90
2022-11-20T05:11:46.213Z,38.88
2022-11-20T05:14:18.794Z,37.50
2022-11-20T05:16:49.665Z,37.88
2022-11-20T05:19:19.526Z,37.80
2022-11-20T05:21:49.264Z,38.28
2022-11-20T05:24:17.552Z,38.28
2022-11-20T05:26:47.106Z,38.95
2022-11-20T05:29:15.878Z,37.95
2022-11-20T05:31:44.107Z,37.95
2022-11-20T05:34:16.553Z,37.35
2022-11-20T05:36:44.771Z,44.10
2022-11-20T05:39:13.075Z,37.40
2022-11-20T05:41:42.876Z,37.95
2022-11-20T05:44:13.093Z,38.60
2022-11-20T05:46:42.534Z,38.72
2022-11-20T05:49:13.343Z,38.03
2022-11-20T05:51:44.122Z,37.97
2022-11-20T05:54:13.551Z,37.42
2022-11-20T05:56:42.962Z,37.03
2022-11-20T05:59:13.963Z,37.40
2022-11-20T06:01:42.338Z,37.90
2022-11-20T06:04:10.941Z,38.63
2022-11-20T06:06:40.784Z,37.88
2022-11-20T06:09:11.669Z,38.72
2022-11-20T06:11:40.003Z,39.25
2022-11-20T06:14:09.866Z,37.88
2022-11-20T06:16:38.413Z,38.08
2022-11-20T06:19:07.902Z,38.85
2022-11-20T06:21:37.365Z,38.08
2022-11-20T06:24:07.536Z,37.65
2022-11-20T06:26:38.494Z,38.15
2022-11-20T06:29:08.012Z,38.63
2022-11-20T06:31:38.745Z,37.53
2022-11-20T06:34:09.963Z,38.40
2022-11-20T06:36:38.280Z,37.55
2022-11-20T06:39:09.001Z,38.22
2022-11-20T06:41:38.626Z,37.38
2022-11-20T06:44:09.373Z,39.25
2022-11-20T06:46:38.810Z,38.10
2022-11-20T06:49:08.535Z,38.72
2022-11-20T06:51:36.841Z,37.38
2022-11-20T06:54:05.268Z,38.97
2022-11-20T06:56:34.684Z,39.20
2022-11-20T06:59:09.082Z,38.42
2022-11-20T07:01:38.628Z,37.75
2022-11-20T07:04:08.578Z,37.92
2022-11-20T07:06:37.126Z,37.70
2022-11-20T07:09:22.082Z,37.53
2022-11-20T07:11:50.459Z,37.22
2022-11-20T07:14:22.516Z,37.85
2022-11-20T07:19:22.041Z,37.40
2022-11-20T07:21:50.448Z,38.10
2022-11-20T07:24:19.884Z,39.17
2022-11-20T07:26:50.100Z,37.75
2022-11-20T07:29:21.215Z,38.42
2022-11-20T07:31:50.941Z,38.13
2022-11-20T07:34:19.326Z,40.42
2022-11-20T07:36:47.628Z,38.95
2022-11-20T07:39:17.200Z,39.08
2022-11-20T07:41:45.515Z,38.55
2022-11-20T07:44:15.152Z,39.17
2022-11-20T07:46:44.792Z,40.00
2022-11-20T07:49:13.045Z,39.22
2022-11-20T07:51:41.312Z,45.33
2022-11-20T07:54:10.745Z,40.45
2022-11-20T07:56:38.956Z,39.58
2022-11-20T07:59:08.445Z,40.22
2022-11-20T08:01:36.746Z,39.40
2022-11-20T08:04:07.928Z,45.45
2022-11-20T08:06:36.409Z,39.47
2022-11-20T08:09:06.226Z,40.40
2022-11-20T08:11:52.230Z,50.35
2022-11-20T08:14:23.037Z,40.10
2022-11-20T08:16:52.029Z,39.33
2022-11-20T08:19:22.191Z,39.40
2022-11-20T08:21:51.020Z,40.88
2022-11-20T08:24:19.297Z,40.35
2022-11-20T08:26:47.847Z,40.58
2022-11-20T08:29:17.318Z,40.83
2022-11-20T08:31:45.605Z,40.03
2022-11-20T08:34:19.145Z,41.47
2022-11-20T08:36:50.535Z,39.78
2022-11-20T08:39:20.452Z,39.67
2022-11-20T08:41:49.062Z,39.78
2022-11-20T08:44:19.714Z,39.78
2022-11-20T08:46:49.532Z,41.25
2022-11-20T08:49:20.620Z,41.50
2022-11-20T08:51:54.669Z,38.97
2022-11-20T08:54:23.663Z,40.67
2022-11-20T08:56:52.292Z,42.13
2022-11-20T09:02:10.636Z,42.85
2022-11-20T09:04:38.965Z,39.08
2022-11-20T09:07:08.729Z,40.20
2022-11-20T09:09:39.510Z,40.65
2022-11-20T09:12:09.066Z,40.03
2022-11-20T09:14:38.504Z,39.75
2022-11-20T09:17:08.695Z,41.67
2022-11-20T09:19:39.428Z,40.40
2022-11-20T09:22:09.390Z,41.88
2022-11-20T09:24:40.322Z,40.57
2022-11-20T09:27:08.624Z,40.90
2022-11-20T09:29:38.450Z,39.78
2022-11-20T09:32:07.502Z,46.05
2022-11-20T09:34:37.072Z,42.33
2022-11-20T09:37:08.066Z,41.67
2022-11-20T09:39:39.816Z,42.88
2022-11-20T09:42:28.845Z,41.13
2022-11-20T09:45:24.023Z,40.92
2022-11-20T09:48:19.693Z,42.30
2022-11-20T09:50:56.727Z,41.95
2022-11-20T09:53:39.844Z,41.70
2022-11-20T09:56:13.742Z,43.75
2022-11-20T09:58:47.640Z,43.53
2022-11-20T10:01:20.997Z,44.92
2022-11-20T10:03:59.226Z,41.72
2022-11-20T10:06:34.331Z,45.78
2022-11-20T10:09:27.805Z,43.97
2022-11-20T10:12:13.490Z,44.60
2022-11-20T10:15:01.082Z,47.40
2022-11-20T10:17:56.133Z,45.72
2022-11-20T10:20:36.286Z,41.80
2022-11-20T10:23:26.381Z,44.92
2022-11-20T10:26:03.608Z,44.15
2022-11-20T10:28:57.116Z,42.75
2022-11-20T10:31:34.313Z,43.13
2022-11-20T10:34:13.047Z,44.15
2022-11-20T10:36:46.361Z,43.20
2022-11-20T10:39:24.639Z,43.92
2022-11-20T10:41:55.888Z,45.22
2022-11-20T10:44:47.868Z,44.70
2022-11-20T10:47:18.844Z,43.10
2022-11-20T10:49:50.946Z,44.10
2022-11-20T10:55:08.897Z,43.22
2022-11-20T10:57:56.062Z,44.95
2022-11-20T11:00:25.533Z,47.47
2022-11-20T11:02:58.392Z,46.03
2022-11-20T11:05:40.816Z,42.97
2022-11-20T11:08:15.810Z,45.72
2022-11-20T11:10:53.374Z,45.70
2022-11-20T11:13:24.302Z,42.80
2022-11-20T11:15:54.442Z,48.03
2022-11-20T11:18:28.787Z,48.03
2022-11-20T11:20:59.798Z,52.40
2022-11-20T11:26:07.902Z,52.78
2022-11-20T11:28:37.715Z,46.88
2022-11-20T11:31:07.363Z,49.92
2022-11-20T11:33:37.262Z,46.35
2022-11-20T11:36:21.263Z,47.15
2022-11-20T11:38:55.244Z,48.45
2022-11-20T11:41:32.643Z,46.42
2022-11-20T11:44:32.959Z,47.28
2022-11-20T11:47:05.332Z,52.80
2022-11-20T11:49:34.844Z,45.90
2022-11-20T11:52:13.161Z,44.95
2022-11-20T11:54:47.900Z,45.55
2022-11-20T11:57:25.817Z,43.97
2022-11-20T12:00:06.669Z,44.83
2022-11-20T12:02:42.539Z,49.30
2022-11-20T12:05:21.787Z,46.72
2022-11-20T12:07:56.270Z,50.40
2022-11-20T12:10:40.105Z,48.05
2022-11-20T12:13:31.718Z,48.95
2022-11-20T12:16:04.691Z,51.40
2022-11-20T12:18:33.910Z,56.17
2022-11-20T12:21:23.376Z,49.85
2022-11-20T12:24:09.265Z,47.10
2022-11-20T12:26:57.658Z,45.88
2022-11-20T12:29:42.386Z,46.67
2022-11-20T12:32:53.508Z,48.03
2022-11-20T12:35:45.200Z,46.45
2022-11-20T12:38:53.155Z,51.20
2022-11-20T12:42:00.636Z,48.58
2022-11-20T12:45:13.097Z,49.67
2022-11-20T12:48:17.740Z,43.15
2022-11-20T12:51:17.677Z,43.25
2022-11-20T12:54:00.493Z,43.75
2022-11-20T12:56:43.231Z,44.40
2022-11-20T12:59:33.219Z,44.72
2022-11-20T13:02:14.659Z,45.15
2022-11-20T13:05:18.922Z,42.83
2022-11-20T13:07:49.828Z,44.92
2022-11-20T13:10:26.557Z,44.00
2022-11-20T13:13:03.663Z,47.95
2022-11-20T13:15:49.490Z,45.45
2022-11-20T13:18:19.909Z,44.17
2022-11-20T13:20:50.695Z,40.67
2022-11-20T13:23:27.824Z,45.05
2022-11-20T13:26:08.825Z,44.33
2022-11-20T13:28:38.636Z,45.70
2022-11-20T13:31:27.316Z,61.58
2022-11-20T13:33:57.572Z,47.13
2022-11-20T13:36:35.960Z,43.15
2022-11-20T13:39:04.758Z,44.90
2022-11-20T13:41:37.612Z,42.58
2022-11-20T13:44:16.787Z,46.20
2022-11-20T13:46:49.271Z,44.92
2022-11-20T13:49:24.793Z,45.17
2022-11-20T13:52:06.251Z,44.70
2022-11-20T13:55:03.040Z,44.83
2022-11-20T13:58:17.850Z,45.63
2022-11-20T14:00:55.095Z,41.20
2022-11-20T14:03:58.499Z,44.97
2022-11-20T14:06:25.548Z,50.22
2022-11-20T14:08:55.934Z,46.58
2022-11-20T14:11:28.138Z,46.65
2022-11-20T14:16:30.592Z,42.55
2022-11-20T14:19:29.278Z,46.75
2022-11-20T14:22:11.776Z,44.25
2022-11-20T14:24:42.915Z,44.40
2022-11-20T14:27:17.738Z,42.22
2022-11-20T14:29:51.133Z,43.55
2022-11-20T14:34:52.802Z,42.92
2022-11-20T14:37:26.656Z,42.72
2022-11-20T14:39:59.869Z,44.10
2022-11-20T14:42:32.955Z,44.70
2022-11-20T14:45:02.889Z,49.47
2022-11-20T14:47:34.229Z,45.90
2022-11-20T14:50:08.789Z,46.67
2022-11-20T14:52:38.233Z,43.00
2022-11-20T14:55:16.065Z,42.50
2022-11-20T14:57:44.353Z,41.42
2022-11-20T15:00:23.630Z,41.97
2022-11-20T15:02:53.846Z,40.50
2022-11-20T15:05:26.512Z,44.15
2022-11-20T15:08:11.561Z,44.10
2022-11-20T15:10:49.775Z,40.55
2022-11-20T15:13:28.930Z,40.30
2022-11-20T15:16:00.753Z,42.88
2022-11-20T15:18:33.434Z,41.47
2022-11-20T15:21:05.330Z,43.42
2022-11-20T15:23:34.753Z,40.22
2022-11-20T15:26:08.030Z,43.55
2022-11-20T15:28:40.077Z,40.60
2022-11-20T15:31:13.919Z,42.85
2022-11-20T15:33:44.398Z,39.58
2022-11-20T15:36:14.080Z,42.13
2022-11-20T15:38:43.857Z,42.35
2022-11-20T15:41:14.810Z,43.17
2022-11-20T15:43:46.002Z,41.85
2022-11-20T15:46:19.289Z,40.83
2022-11-20T15:48:53.949Z,42.70
2022-11-20T15:51:28.871Z,40.47
2022-11-20T15:53:59.334Z,43.03
2022-11-20T15:56:31.525Z,41.47
2022-11-20T15:59:00.056Z,42.60
2022-11-20T16:01:28.605Z,41.50
2022-11-20T16:03:56.883Z,41.97
2022-11-20T16:06:25.123Z,39.60
2022-11-20T16:08:53.711Z,43.40
2022-11-20T16:11:21.937Z,39.88
2022-11-20T16:14:09.607Z,42.78
2022-11-20T16:16:41.480Z,40.92
2022-11-20T16:19:13.422Z,44.58
2022-11-20T16:21:42.899Z,55.40
2022-11-20T16:24:16.322Z,43.13
2022-11-20T16:26:47.304Z,43.58
2022-11-20T16:29:17.259Z,42.38
2022-11-20T16:31:45.568Z,41.08
2022-11-20T16:34:17.713Z,41.30
2022-11-20T16:36:47.799Z,42.95
2022-11-20T16:39:23.050Z,39.60
2022-11-20T16:41:53.559Z,42.47
2022-11-20T16:44:24.555Z,41.70
2022-11-20T16:46:53.331Z,42.92
2022-11-20T16:49:21.679Z,42.30
2022-11-20T16:51:51.188Z,41.35
2022-11-20T16:54:21.084Z,40.15
2022-11-20T16:56:51.937Z,42.47
2022-11-20T16:59:22.859Z,41.63
2022-11-20T17:01:52.753Z,41.33
2022-11-20T17:04:22.611Z,40.25
2022-11-20T17:06:54.005Z,40.88
2022-11-20T17:09:23.472Z,39.47
2022-11-20T17:11:51.704Z,44.05
2022-11-20T17:14:20.164Z,40.45
2022-11-20T17:16:50.985Z,41.03
2022-11-20T17:19:20.078Z,45.55
2022-11-20T17:21:49.703Z,46.92
2022-11-20T17:24:19.428Z,41.75
2022-11-20T17:26:50.937Z,41.33
2022-11-20T17:29:24.075Z,41.83
2022-11-20T17:31:56.010Z,41.95
2022-11-20T17:34:25.021Z,44.78
2022-11-20T17:36:55.518Z,40.85
2022-11-20T17:39:24.105Z,40.20
2022-11-20T17:42:08.642Z,42.72
2022-11-20T17:44:36.945Z,42.90
2022-11-20T17:47:09.348Z,42.35
2022-11-20T17:49:39.112Z,42.13
2022-11-20T17:52:08.613Z,43.20
2022-11-20T17:54:38.069Z,43.15
2022-11-20T17:57:26.560Z,42.42
2022-11-20T17:59:56.051Z,42.95
2022-11-20T18:02:26.988Z,42.10
2022-11-20T18:04:56.215Z,42.50
2022-11-20T18:07:26.935Z,45.45
2022-11-20T18:09:55.221Z,40.25
2022-11-20T18:12:23.545Z,47.60
2022-11-20T18:14:53.315Z,41.80
2022-11-20T18:17:24.079Z,41.35
2022-11-20T18:20:14.193Z,40.15
2022-11-20T18:22:43.126Z,40.75
2022-11-20T18:25:12.601Z,41.53
2022-11-20T18:27:41.545Z,41.03
2022-11-20T18:30:11.860Z,41.85
2022-11-20T18:32:41.444Z,42.38
2022-11-20T18:35:12.456Z,45.50
2022-11-20T18:37:42.254Z,44.00
2022-11-20T18:40:13.838Z,41.28
2022-11-20T18:42:59.431Z,39.85
2022-11-20T18:45:30.388Z,44.75
2022-11-20T18:47:58.712Z,43.50
2022-11-20T18:50:28.634Z,40.90
2022-11-20T18:52:56.919Z,41.17
2022-11-20T18:55:26.425Z,44.20
2022-11-20T18:57:55.166Z,41.65
2022-11-20T19:00:24.328Z,42.67
2022-11-20T19:02:55.253Z,41.25
2022-11-20T19:05:25.262Z,41.35
2022-11-20T19:07:56.066Z,42.40
2022-11-20T19:10:24.765Z,40.88
2022-11-20T19:12:52.999Z,40.92
2022-11-20T19:15:21.307Z,40.78
2022-11-20T19:17:51.495Z,41.05
2022-11-20T19:20:20.992Z,40.35
2022-11-20T19:22:54.763Z,40.58
2022-11-20T19:25:24.822Z,42.65
2022-11-20T19:27:55.534Z,41.07
2022-11-20T19:30:25.360Z,40.20
2022-11-20T19:32:53.651Z,42.03
2022-11-20T19:35:23.141Z,42.25
2022-11-20T19:37:54.879Z,41.85
2022-11-20T19:40:25.684Z,41.17
2022-11-20T19:42:55.097Z,44.65
2022-11-20T19:45:23.341Z,42.30
2022-11-20T19:48:07.574Z,41.97
2022-11-20T19:50:37.678Z,42.60
2022-11-20T19:53:07.467Z,41.08
2022-11-20T19:55:38.765Z,41.78
2022-11-20T19:58:07.713Z,43.90
2022-11-20T20:00:36.021Z,40.45
2022-11-20T20:03:05.518Z,40.25
2022-11-20T20:05:36.034Z,44.55
2022-11-20T20:08:04.663Z,43.10
2022-11-20T20:10:34.594Z,42.55
2022-11-20T20:13:04.719Z,41.35
2022-11-20T20:15:34.703Z,42.77
2022-11-20T20:18:04.558Z,43.15
2022-11-20T20:20:32.773Z,42.95
2022-11-20T20:23:03.936Z,45.30
2022-11-20T20:25:33.664Z,47.10
2022-11-20T20:28:04.523Z,44.97
2022-11-20T20:30:34.046Z,43.72
2022-11-20T20:33:03.569Z,46.70
2022-11-20T20:35:32.179Z,45.70
2022-11-20T20:38:01.673Z,46.60
2022-11-20T20:40:30.391Z,45.15
2022-11-20T20:42:58.794Z,45.10
2022-11-20T20:45:29.648Z,45.90
2022-11-20T20:48:01.248Z,44.67
2022-11-20T20:50:29.847Z,45.63
2022-11-20T20:52:58.114Z,46.33
2022-11-20T20:55:26.698Z,43.38
2022-11-20T20:57:57.601Z,43.25
2022-11-20T21:00:25.890Z,45.70
2022-11-20T21:02:55.549Z,46.50
2022-11-20T21:05:24.971Z,51.05
2022-11-20T21:08:13.373Z,45.10
2022-11-20T21:10:42.825Z,49.15
2022-11-20T21:13:11.108Z,47.17
2022-11-20T21:15:40.418Z,44.90
2022-11-20T21:18:11.239Z,47.92
2022-11-20T21:20:58.345Z,45.40
2022-11-20T21:23:29.120Z,52.08
2022-11-20T21:26:02.322Z,48.38
2022-11-20T21:28:33.261Z,46.72
2022-11-20T21:31:08.672Z,47.90
2022-11-20T21:33:43.700Z,48.53
2022-11-20T21:36:14.313Z,50.83
2022-11-20T21:38:44.078Z,52.85
2022-11-20T21:41:14.200Z,49.53
2022-11-20T21:43:44.420Z,51.07
2022-11-20T21:46:14.796Z,48.90
2022-11-20T21:48:48.776Z,50.00
2022-11-20T21:51:19.319Z,43.63
2022-11-20T21:53:50.578Z,44.97
2022-11-20T21:56:22.917Z,42.63
2022-11-20T21:58:54.712Z,46.83
2022-11-20T22:01:25.817Z,51.92
2022-11-20T22:03:58.582Z,50.53
2022-11-20T22:06:33.480Z,49.95
2022-11-20T22:09:05.121Z,51.63
2022-11-20T22:11:34.577Z,48.17
2022-11-20T22:14:18.286Z,49.60
2022-11-20T22:16:46.607Z,45.15
2022-11-20T22:19:20.358Z,50.25
2022-11-20T22:21:51.034Z,57.22
2022-11-20T22:24:23.514Z,48.45
2022-11-20T22:26:53.343Z,49.28
2022-11-20T22:29:23.283Z,49.70
2022-11-20T22:31:53.917Z,54.33
2022-11-20T22:34:26.543Z,53.38
2022-11-20T22:36:56.324Z,54.47
2022-11-20T22:39:26.943Z,47.05
2022-11-20T22:41:56.352Z,49.00
2022-11-20T22:44:24.862Z,52.47
2022-11-20T22:46:53.873Z,54.53
2022-11-20T22:49:27.227Z,49.38
2022-11-20T22:51:56.843Z,55.58
2022-11-20T22:54:26.812Z,51.70
2022-11-20T22:56:56.258Z,57.30
2022-11-20T22:59:27.289Z,54.17
2022-11-20T23:01:55.580Z,57.47
2022-11-20T23:04:26.665Z,55.10
2022-11-20T23:06:56.402Z,54.60
2022-11-20T23:09:24.745Z,47.28
2022-11-20T23:11:54.210Z,48.63
2022-11-20T23:14:27.651Z,47.03
2022-11-20T23:16:56.230Z,50.97
2022-11-20T23:19:27.335Z,53.50
2022-11-20T23:21:57.115Z,61.40
2022-11-20T23:24:27.952Z,57.20
2022-11-20T23:26:57.525Z,53.17
2022-11-20T23:29:25.808Z,58.00
2022-11-20T23:31:55.284Z,52.95
2022-11-20T23:34:27.522Z,55.95
2022-11-20T23:36:55.884Z,45.97
2022-11-20T23:39:25.625Z,49.13
2022-11-20T23:41:55.116Z,44.13
2022-11-20T23:44:25.675Z,52.63
2022-11-20T23:46:55.463Z,48.85
2022-11-20T23:49:27.509Z,48.33
2022-11-20T23:51:56.960Z,54.67
2022-11-20T23:54:26.731Z,50.67
2022-11-20T23:56:56.426Z,54.45
2022-11-20T23:59:24.709Z,61.47
